Time;durP1;ratioP1;P1;durP2;ratioP2;P2;SDS_P1;SDS_P2;PMS_P1;PMS_P2;Temp;Humidity;BMP_temperature;BMP_pressure;BME280_temperature;BME280_humidity;BME280_pressure;Samples;Min_cycle;Max_cycle;Signal;HPM_P1;HPM_P2
2022/07/16 00:02:21;;;;;;;;;2.33;2.33;;;;;24.55;37.98;101897.78;5037067;28;45269;-78
2022/07/16 00:04:46;;;;;;;;;3.00;3.00;;;;;24.54;37.80;101901.44;5035700;28;59524;-77
2022/07/16 00:07:11;;;;;;;;;2.67;2.00;;;;;24.52;37.99;101906.00;5036079;28;60767;-76
2022/07/16 00:09:37;;;;;;;;;4.67;2.00;;;;;24.47;38.06;101902.56;5037528;28;45400;-77
2022/07/16 00:12:03;;;;;;;;;4.00;2.00;;;;;24.40;37.96;101904.56;5035336;28;66185;-76
2022/07/16 00:14:28;;;;;;;;;2.00;2.00;;;;;24.38;38.03;101903.69;5036446;28;45448;-77
2022/07/16 00:16:53;;;;;;;;;5.00;3.00;;;;;24.35;38.29;101901.13;5036820;28;58862;-76
2022/07/16 00:19:20;;;;;;;;;3.00;3.00;;;;;24.31;38.57;101902.09;5036447;28;60650;-77
2022/07/16 00:21:50;;;;;;;;;2.00;2.00;;;;;24.26;38.60;101893.25;5036738;28;47356;-78
2022/07/16 00:24:16;;;;;;;;;4.67;3.00;;;;;24.22;38.59;101899.66;5037300;28;45275;-77
2022/07/16 00:26:41;;;;;;;;;5.00;4.00;;;;;24.19;38.60;101899.75;5034842;28;45229;-77
2022/07/16 00:29:07;;;;;;;;;2.67;2.67;;;;;24.17;38.92;101902.47;5036509;28;45662;-77
2022/07/16 00:31:32;;;;;;;;;2.00;2.00;;;;;24.15;39.02;101895.38;5036289;28;50021;-77
2022/07/16 00:33:57;;;;;;;;;3.67;3.67;;;;;24.12;39.09;101900.84;5037077;28;45454;-77
2022/07/16 00:36:23;;;;;;;;;4.00;2.33;;;;;24.09;39.29;101892.84;5036938;28;45405;-77
2022/07/16 00:38:48;;;;;;;;;2.33;2.33;;;;;24.04;39.21;101895.66;5036813;28;45819;-77
2022/07/16 00:41:17;;;;;;;;;3.33;3.00;;;;;24.03;39.26;101893.91;5035524;28;70709;-78
2022/07/16 00:43:53;;;;;;;;;4.67;3.00;;;;;23.99;39.70;101895.78;5036951;28;45962;-77
2022/07/16 00:46:18;;;;;;;;;3.00;3.00;;;;;23.94;39.54;101900.44;5037092;28;45458;-78
2022/07/16 00:48:45;;;;;;;;;2.00;2.00;;;;;23.92;39.65;101905.00;5036815;28;45416;-77
2022/07/16 00:51:11;;;;;;;;;3.33;2.00;;;;;23.89;39.90;101901.50;5036377;28;46492;-77
2022/07/16 00:53:37;;;;;;;;;2.00;2.00;;;;;23.85;40.38;101906.06;5036804;28;45411;-76
2022/07/16 00:56:03;;;;;;;;;2.00;2.00;;;;;23.82;40.17;101900.78;5036882;28;45270;-77
2022/07/16 00:58:29;;;;;;;;;2.33;2.33;;;;;23.77;40.51;101902.72;5018091;28;45559;-77
2022/07/16 01:00:54;;;;;;;;;3.00;2.67;;;;;23.74;40.25;101895.56;5035445;28;68085;-77
2022/07/16 01:03:19;;;;;;;;;4.33;3.33;;;;;23.69;40.48;101892.09;5036566;28;45707;-77
2022/07/16 01:05:45;;;;;;;;;2.00;2.00;;;;;23.66;40.56;101892.22;5036239;28;56270;-77
2022/07/16 01:08:11;;;;;;;;;5.00;3.00;;;;;23.66;40.42;101908.38;5036343;28;45634;-76
2022/07/16 01:10:38;;;;;;;;;4.33;3.00;;;;;23.61;40.77;101902.19;5035377;28;46652;-77
2022/07/16 01:13:04;;;;;;;;;2.33;2.33;;;;;23.58;41.05;101896.00;5017619;28;45609;-77
2022/07/16 01:15:29;;;;;;;;;2.67;2.67;;;;;23.53;40.97;101896.09;5019145;28;45381;-77
2022/07/16 01:17:55;;;;;;;;;5.00;3.33;;;;;23.51;40.94;101906.94;5042624;28;45515;-77
2022/07/16 01:20:20;;;;;;;;;3.33;2.67;;;;;23.47;41.13;101904.34;5042654;28;46433;-76
2022/07/16 01:22:46;;;;;;;;;1.00;1.00;;;;;23.44;41.18;101902.63;5043182;28;45389;-76
2022/07/16 01:25:12;;;;;;;;;4.00;2.67;;;;;23.41;41.31;101899.13;5042508;28;45356;-77
2022/07/16 01:27:38;;;;;;;;;5.00;2.33;;;;;23.38;41.49;101902.75;5039367;28;45433;-77
2022/07/16 01:30:08;;;;;;;;;4.00;4.00;;;;;23.34;41.51;101898.41;5042491;28;47145;-77
2022/07/16 01:32:33;;;;;;;;;4.00;3.00;;;;;23.31;41.98;101903.84;5042951;28;45392;-77
2022/07/16 01:34:58;;;;;;;;;4.00;2.00;;;;;23.29;41.77;101904.81;5043026;28;45461;-77
2022/07/16 01:37:24;;;;;;;;;2.00;2.00;;;;;23.25;41.94;101901.31;5041654;28;45475;-77
2022/07/16 01:39:49;;;;;;;;;2.33;2.00;;;;;23.21;42.15;101894.22;5041877;28;63681;-77
2022/07/16 01:42:14;;;;;;;;;3.00;3.00;;;;;23.18;42.27;101897.00;5042050;28;66759;-77
2022/07/16 01:44:40;;;;;;;;;3.00;2.00;;;;;23.15;42.30;101906.03;5042387;28;59774;-77
2022/07/16 01:47:06;;;;;;;;;3.00;3.00;;;;;23.11;42.71;101906.16;5042628;28;45569;-77
2022/07/16 01:49:33;;;;;;;;;3.00;3.00;;;;;23.07;42.55;101907.16;5042288;28;47334;-76
2022/07/16 01:52:25;;;;;;;;;3.00;3.00;;;;;23.03;42.74;101905.47;5042160;28;45538;-78
2022/07/16 01:54:52;;;;;;;;;4.67;3.33;;;;;22.98;42.92;101911.84;5039634;28;46448;-76
2022/07/16 01:57:19;;;;;;;;;3.00;3.00;;;;;22.94;43.48;101912.81;5042254;28;45571;-77
2022/07/16 01:59:45;;;;;;;;;3.00;3.00;;;;;22.90;43.02;101908.41;5042250;28;47665;-77
2022/07/16 02:02:11;;;;;;;;;3.00;3.00;;;;;22.87;43.43;101905.78;5042770;28;45548;-76
2022/07/16 02:04:37;;;;;;;;;6.00;3.00;;;;;22.83;43.28;101901.38;5042203;28;45452;-78
2022/07/16 02:07:04;;;;;;;;;4.67;3.67;;;;;22.82;43.45;101909.50;5042666;28;45518;-77
2022/07/16 02:09:29;;;;;;;;;3.00;3.00;;;;;22.79;43.63;101909.56;5042067;28;46720;-77
2022/07/16 02:11:54;;;;;;;;;4.00;3.00;;;;;22.74;43.74;101902.50;5041300;28;67614;-77
2022/07/16 02:14:20;;;;;;;;;5.33;4.00;;;;;22.68;44.10;101901.72;5042304;28;45494;-77
2022/07/16 02:16:45;;;;;;;;;5.33;4.00;;;;;22.64;43.88;101898.22;5042037;28;46080;-76
2022/07/16 02:19:11;;;;;;;;;3.67;3.67;;;;;22.62;44.42;101905.44;5041487;28;63074;-77
2022/07/16 02:21:36;;;;;;;;;4.00;4.00;;;;;22.59;44.45;101901.94;5041490;28;63544;-77
2022/07/16 02:24:02;;;;;;;;;4.00;4.00;;;;;22.54;44.59;101904.72;5041567;28;59278;-77
2022/07/16 02:26:27;;;;;;;;;2.00;2.00;;;;;22.52;44.77;101902.97;5024476;28;45643;-78
2022/07/16 02:28:53;;;;;;;;;2.00;2.00;;;;;22.49;44.84;101903.94;5036845;28;51751;-78
2022/07/16 02:31:19;;;;;;;;;5.33;4.00;;;;;22.45;45.06;101902.22;5037162;28;45166;-77
2022/07/16 02:33:44;;;;;;;;;3.00;3.00;;;;;22.41;45.17;101909.47;5039288;28;45463;-77
2022/07/16 02:36:10;;;;;;;;;3.67;3.67;;;;;22.39;45.20;101896.97;5038237;28;61945;-78
2022/07/16 02:38:35;;;;;;;;;3.00;3.00;;;;;22.37;45.02;101901.47;5038593;28;47079;-77
2022/07/16 02:41:01;;;;;;;;;3.00;3.00;;;;;22.36;45.52;101907.78;5038613;28;51889;-77
2022/07/16 02:43:26;;;;;;;;;3.33;3.33;;;;;22.34;45.34;101915.03;5037926;28;64146;-77
2022/07/16 02:45:51;;;;;;;;;2.00;2.00;;;;;22.32;45.49;101909.69;5038110;28;59333;-78
2022/07/16 02:48:17;;;;;;;;;3.33;2.67;;;;;22.30;45.99;101916.88;5038077;28;57623;-78
2022/07/16 02:50:42;;;;;;;;;5.33;2.67;;;;;22.28;45.95;101910.66;5038338;28;45405;-78
2022/07/16 02:53:08;;;;;;;;;3.00;2.00;;;;;22.26;45.91;101912.47;5037782;28;60685;-77
2022/07/16 02:55:33;;;;;;;;;3.67;3.00;;;;;22.27;46.10;101916.97;5038328;28;45510;-78
2022/07/16 02:57:59;;;;;;;;;4.00;3.00;;;;;22.24;46.39;101908.94;5037536;28;48024;-77
2022/07/16 03:00:25;;;;;;;;;3.33;2.00;;;;;22.21;45.99;101907.22;5038168;28;45529;-77
2022/07/16 03:02:50;;;;;;;;;3.00;1.33;;;;;22.17;46.52;101899.22;5038264;28;45213;-77
2022/07/16 03:05:16;;;;;;;;;2.00;2.00;;;;;22.16;46.54;101903.72;5039125;28;45467;-77
2022/07/16 03:07:41;;;;;;;;;7.33;3.67;;;;;22.12;46.78;101902.00;5037962;28;47054;-77
2022/07/16 03:10:08;;;;;;;;;5.67;2.67;;;;;22.09;46.83;101902.00;5038304;28;45362;-77
2022/07/16 03:12:34;;;;;;;;;3.00;3.00;;;;;22.08;46.80;101910.13;5037995;28;45439;-77
2022/07/16 03:15:02;;;;;;;;;3.67;3.67;;;;;22.03;46.73;101906.63;5038100;28;45351;-77
2022/07/16 03:17:27;;;;;;;;;4.67;4.00;;;;;22.01;47.06;101912.06;5033474;28;46631;-78
2022/07/16 03:19:53;;;;;;;;;2.00;2.00;;;;;21.96;47.12;101903.19;5036780;28;45321;-77
2022/07/16 03:22:18;;;;;;;;;4.00;3.00;;;;;21.92;47.44;101899.66;5036943;28;45469;-76
2022/07/16 03:24:43;;;;;;;;;5.33;3.00;;;;;21.87;47.36;101920.38;5036900;28;49021;-77
2022/07/16 03:27:09;;;;;;;;;2.00;2.00;;;;;21.83;47.08;101909.69;5030690;28;63940;-77
2022/07/16 03:29:34;;;;;;;;;2.67;2.67;;;;;21.80;47.75;101921.41;5037351;28;45288;-77
2022/07/16 03:31:59;;;;;;;;;4.00;4.00;;;;;21.76;48.04;101913.41;5037201;28;60567;-76
2022/07/16 03:34:25;;;;;;;;;5.00;3.00;;;;;21.71;47.94;101905.44;5037642;28;45361;-77
2022/07/16 03:36:50;;;;;;;;;3.00;3.00;;;;;21.66;48.18;101913.56;5036674;28;46523;-77
2022/07/16 03:39:16;;;;;;;;;3.00;3.00;;;;;21.61;48.38;101911.88;5036733;28;63307;-77
2022/07/16 03:41:41;;;;;;;;;4.00;3.00;;;;;21.58;48.57;101920.03;5006543;28;55621;-77
2022/07/16 03:44:09;;;;;;;;;4.00;4.00;;;;;21.57;49.21;101924.50;5038179;28;45483;-77
2022/07/16 03:46:35;;;;;;;;;3.67;3.00;;;;;21.54;49.16;101921.88;5037328;28;46830;-77
2022/07/16 03:49:02;;;;;;;;;4.00;4.00;;;;;21.52;49.36;101922.78;5036987;28;45301;-78
2022/07/16 03:51:28;;;;;;;;;4.00;4.00;;;;;21.53;49.21;101922.78;5037806;28;45400;-78
2022/07/16 03:53:53;;;;;;;;;7.00;4.00;;;;;21.53;49.25;101919.22;5037606;28;45482;-77
2022/07/16 03:56:19;;;;;;;;;4.00;2.67;;;;;21.52;49.27;101918.31;5036934;28;46374;-77
2022/07/16 03:58:44;;;;;;;;;3.67;3.67;;;;;21.50;49.30;101917.44;5036023;28;45602;-77
2022/07/16 04:01:09;;;;;;;;;6.33;4.00;;;;;21.49;49.72;101926.44;5037154;28;59193;-78
2022/07/16 04:03:36;;;;;;;;;4.00;4.00;;;;;21.45;49.89;101922.88;5037757;28;45361;-75
2022/07/16 04:06:03;;;;;;;;;6.00;5.00;;;;;21.42;50.20;101922.06;5037182;28;47402;-76
2022/07/16 04:08:28;;;;;;;;;3.00;3.00;;;;;21.39;50.58;101924.81;5037169;28;45534;-77
2022/07/16 04:10:54;;;;;;;;;4.67;3.00;;;;;21.36;50.10;101925.75;5037462;28;45391;-77
2022/07/16 04:13:19;;;;;;;;;5.00;3.33;;;;;21.32;50.19;101931.19;5037517;28;45551;-77
2022/07/16 04:15:45;;;;;;;;;5.00;3.00;;;;;21.30;51.07;101936.56;5036278;28;47160;-77
2022/07/16 04:18:10;;;;;;;;;4.00;4.00;;;;;21.31;51.02;101940.19;5036376;28;45424;-77
2022/07/16 04:20:36;;;;;;;;;5.00;5.00;;;;;21.27;51.12;101939.28;5018757;28;51106;-77
2022/07/16 04:23:02;;;;;;;;;3.33;3.33;;;;;21.27;50.51;101938.41;5036308;28;54607;-77
2022/07/16 04:25:27;;;;;;;;;3.00;3.00;;;;;21.22;51.07;101949.22;5036859;28;46668;-78
2022/07/16 04:27:53;;;;;;;;;3.00;2.00;;;;;21.19;51.12;101947.44;5025292;28;45353;-77
2022/07/16 04:30:18;;;;;;;;;5.33;4.00;;;;;21.18;51.53;101952.84;5035646;28;46712;-77
2022/07/16 04:32:44;;;;;;;;;5.67;4.00;;;;;21.16;51.24;101952.88;5036792;28;45512;-77
2022/07/16 04:35:11;;;;;;;;;3.33;3.33;;;;;21.14;51.42;101959.19;5036518;28;46305;-77
2022/07/16 04:37:37;;;;;;;;;3.33;3.33;;;;;21.13;52.12;101962.78;5036842;28;45411;-77
2022/07/16 04:40:03;;;;;;;;;6.00;3.67;;;;;21.11;51.91;101962.81;5036984;28;45408;-76
2022/07/16 04:42:29;;;;;;;;;6.67;4.67;;;;;21.08;52.03;101953.91;5036823;28;45344;-77
2022/07/16 04:44:54;;;;;;;;;4.67;3.33;;;;;21.07;52.15;101960.19;5035456;28;49818;-76
2022/07/16 04:47:19;;;;;;;;;5.67;4.33;;;;;21.02;52.27;101954.88;5036634;28;45309;-77
2022/07/16 04:49:45;;;;;;;;;3.00;3.00;;;;;21.01;52.66;101962.97;5036747;28;45867;-77
2022/07/16 04:52:10;;;;;;;;;5.00;3.00;;;;;20.97;52.36;101962.09;5035719;28;58796;-77
2022/07/16 04:54:36;;;;;;;;;4.00;4.00;;;;;20.96;52.70;101962.13;5036020;28;61311;-77
2022/07/16 04:57:01;;;;;;;;;5.00;4.00;;;;;20.90;52.75;101963.13;5034915;28;52863;-77
2022/07/16 04:59:26;;;;;;;;;4.00;4.00;;;;;20.88;53.59;101956.88;5034572;28;60983;-76
2022/07/16 05:01:52;;;;;;;;;2.67;2.67;;;;;20.90;53.58;101968.47;5030791;28;48518;-78
2022/07/16 05:04:17;;;;;;;;;3.00;3.00;;;;;20.91;53.50;101973.81;5033522;28;64318;-76
2022/07/16 05:06:43;;;;;;;;;7.00;4.00;;;;;20.92;53.86;101967.53;5034890;28;45539;-77
2022/07/16 05:09:09;;;;;;;;;6.33;5.00;;;;;20.93;53.98;101963.06;5035829;28;45519;-76
2022/07/16 05:11:34;;;;;;;;;5.33;4.33;;;;;20.91;53.87;101956.84;5033367;28;45593;-77
2022/07/16 05:13:59;;;;;;;;;6.33;3.67;;;;;20.93;54.15;101965.75;5032235;28;46590;-76
2022/07/16 05:16:25;;;;;;;;;3.00;3.00;;;;;20.91;53.76;101962.19;5035915;28;45336;-79
2022/07/16 05:18:51;;;;;;;;;5.00;4.00;;;;;20.90;54.13;101955.06;5033409;28;59661;-76
2022/07/16 05:21:16;;;;;;;;;4.67;4.33;;;;;20.91;54.24;101956.84;5033458;28;45550;-75
2022/07/16 05:23:42;;;;;;;;;3.00;3.00;;;;;20.89;54.26;101945.25;5036305;28;47305;-76
2022/07/16 05:26:07;;;;;;;;;2.67;2.00;;;;;20.87;54.35;101952.41;5035921;28;45220;-75
2022/07/16 05:28:33;;;;;;;;;5.00;4.67;;;;;20.89;54.91;101951.50;5031546;28;61182;-77
2022/07/16 05:30:58;;;;;;;;;4.00;4.00;;;;;20.89;54.62;101959.53;5033456;28;46965;-76
2022/07/16 05:33:24;;;;;;;;;4.00;4.00;;;;;20.90;55.10;101945.19;5035445;28;63520;-77
2022/07/16 05:35:49;;;;;;;;;8.67;5.33;;;;;20.92;55.17;101961.28;5034207;28;45686;-78
2022/07/16 05:38:15;;;;;;;;;7.33;6.33;;;;;20.92;55.07;101954.13;5034184;28;45450;-75
2022/07/16 05:40:40;;;;;;;;;6.67;3.67;;;;;20.90;55.54;101953.25;5036485;28;45309;-76
2022/07/16 05:43:06;;;;;;;;;4.00;4.00;;;;;20.92;55.09;101959.47;5036071;28;45692;-78
2022/07/16 05:45:31;;;;;;;;;6.33;5.00;;;;;20.97;55.14;101963.91;5034449;28;45581;-78
2022/07/16 05:47:57;;;;;;;;;8.00;6.67;;;;;20.99;55.57;101964.78;5017850;28;45333;-75
2022/07/16 05:50:22;;;;;;;;;7.00;6.00;;;;;21.01;55.14;101971.03;5035448;28;64598;-78
2022/07/16 05:52:47;;;;;;;;;8.00;6.00;;;;;21.03;55.67;101970.06;5035448;28;64151;-76
2022/07/16 05:55:13;;;;;;;;;6.33;5.00;;;;;21.06;55.31;101971.84;5018087;28;45332;-76
2022/07/16 05:57:38;;;;;;;;;5.00;5.00;;;;;21.09;55.77;101977.16;5034938;28;60172;-77
2022/07/16 06:00:06;;;;;;;;;5.00;4.67;;;;;21.11;55.24;101976.25;5036463;28;45594;-77
2022/07/16 06:02:31;;;;;;;;;6.67;4.33;;;;;21.18;55.49;101977.91;5035709;28;46791;-77
2022/07/16 06:04:56;;;;;;;;;8.00;5.00;;;;;21.23;55.37;101976.97;5038252;28;50198;-78
2022/07/16 06:07:22;;;;;;;;;7.67;6.00;;;;;21.24;55.58;101976.94;5039223;28;53541;-77
2022/07/16 06:09:47;;;;;;;;;9.33;6.00;;;;;21.28;55.38;101985.84;5039020;28;57518;-76
2022/07/16 06:12:12;;;;;;;;;7.00;5.67;;;;;21.31;55.59;101989.41;5039194;28;47337;-75
2022/07/16 06:14:38;;;;;;;;;5.33;5.00;;;;;21.34;55.68;101988.47;5037059;28;62751;-75
2022/07/16 06:17:03;;;;;;;;;7.33;6.33;;;;;21.38;55.64;101991.09;5036986;28;51989;-76
2022/07/16 06:19:28;;;;;;;;;9.00;6.00;;;;;21.39;55.63;101992.84;5038360;28;62691;-77
2022/07/16 06:21:54;;;;;;;;;6.00;4.67;;;;;21.43;55.80;101999.09;5039166;28;46441;-75
2022/07/16 06:24:19;;;;;;;;;6.00;4.00;;;;;21.47;55.90;101998.13;5038235;28;63485;-75
2022/07/16 06:26:47;;;;;;;;;6.67;6.67;;;;;21.50;56.26;101998.06;5037681;28;59217;-75
2022/07/16 06:29:14;;;;;;;;;4.00;4.00;;;;;21.55;56.22;102006.06;5039179;28;45346;-75
2022/07/16 06:31:40;;;;;;;;;6.67;5.33;;;;;21.57;55.53;102009.59;5038842;28;47420;-78
2022/07/16 06:34:05;;;;;;;;;6.00;5.00;;;;;21.61;55.56;102003.28;5034989;28;45645;-76
2022/07/16 06:36:30;;;;;;;;;8.00;6.00;;;;;21.64;55.62;102004.13;5034925;28;59408;-75
2022/07/16 06:38:56;;;;;;;;;6.00;6.00;;;;;21.69;55.24;102006.75;5034066;28;45347;-76
2022/07/16 06:41:21;;;;;;;;;7.33;4.67;;;;;21.77;55.18;102017.34;5035158;28;62806;-76
2022/07/16 06:43:46;;;;;;;;;5.00;4.00;;;;;21.83;55.08;102028.88;5038138;28;63894;-74
2022/07/16 06:46:12;;;;;;;;;7.00;6.00;;;;;21.88;55.14;102021.63;5035474;28;59799;-75
2022/07/16 06:48:37;;;;;;;;;4.00;4.00;;;;;21.96;54.88;102019.72;5038278;28;46283;-74
2022/07/16 06:51:02;;;;;;;;;5.67;5.33;;;;;22.06;54.97;102028.50;5036727;28;70469;-74
2022/07/16 06:53:28;;;;;;;;;7.00;6.00;;;;;22.11;54.61;102034.75;5037486;28;45447;-74
2022/07/16 06:55:53;;;;;;;;;4.33;4.33;;;;;22.18;54.35;102035.50;5037481;28;45404;-77
2022/07/16 06:58:19;;;;;;;;;7.67;5.00;;;;;22.20;54.05;102034.56;5037063;28;53198;-75
2022/07/16 07:00:44;;;;;;;;;6.00;5.00;;;;;22.21;54.20;102032.75;5037288;28;66015;-75
2022/07/16 07:03:11;;;;;;;;;7.67;5.67;;;;;22.26;54.37;102036.25;5031990;28;45541;-75
2022/07/16 07:05:37;;;;;;;;;10.33;7.67;;;;;22.31;54.04;102039.72;5030697;28;45304;-76
2022/07/16 07:08:03;;;;;;;;;5.67;5.67;;;;;22.39;54.11;102039.59;5037033;28;45415;-75
2022/07/16 07:10:28;;;;;;;;;6.33;3.33;;;;;22.44;53.73;102040.41;5036531;28;46756;-75
2022/07/16 07:12:54;;;;;;;;;55.00;21.75;;;;;22.49;53.86;102044.78;5036966;28;45559;-76
2022/07/16 07:15:19;;;;;;;;;14.33;6.00;;;;;22.54;53.41;102038.44;5034151;28;45344;-74
2022/07/16 07:17:45;;;;;;;;;7.33;4.33;;;;;22.58;53.33;102035.63;5031223;28;45353;-75
2022/07/16 07:20:11;;;;;;;;;5.67;5.00;;;;;22.64;54.24;102031.97;5037516;28;47606;-76
2022/07/16 07:22:36;;;;;;;;;6.00;4.00;;;;;22.69;53.40;102038.09;5037436;28;45575;-75
2022/07/16 07:25:01;;;;;;;;;6.33;5.00;;;;;22.74;53.82;102033.50;5036749;28;47433;-75
2022/07/16 07:27:27;;;;;;;;;8.67;5.33;;;;;22.80;52.93;102032.50;5036326;28;45539;-76
2022/07/16 07:29:52;;;;;;;;;7.33;4.00;;;;;22.87;52.99;102039.56;5036444;28;46578;-78
2022/07/16 07:32:18;;;;;;;;;5.00;5.00;;;;;22.92;52.69;102041.25;5036540;28;49918;-77
2022/07/16 07:34:43;;;;;;;;;10.33;5.67;;;;;22.98;52.40;102037.56;5036320;28;61981;-78
2022/07/16 07:37:09;;;;;;;;;7.67;4.33;;;;;23.02;52.62;102047.34;5035961;28;58957;-77
2022/07/16 07:39:34;;;;;;;;;5.33;5.33;;;;;23.10;52.58;102049.88;5036456;28;50267;-78
2022/07/16 07:41:59;;;;;;;;;7.67;4.00;;;;;23.14;52.01;102038.09;5035893;28;45268;-76
2022/07/16 07:44:25;;;;;;;;;4.00;3.00;;;;;23.19;51.95;102036.19;5036905;28;45555;-78
2022/07/16 07:46:51;;;;;;;;;6.00;5.00;;;;;23.23;51.65;102037.91;5037126;28;45383;-75
2022/07/16 07:49:16;;;;;;;;;9.67;6.67;;;;;23.29;51.73;102039.59;5034260;28;47371;-76
2022/07/16 07:51:41;;;;;;;;;5.33;5.00;;;;;23.36;51.34;102042.09;5034656;28;61936;-80
2022/07/16 07:54:07;;;;;;;;;3.33;3.33;;;;;23.45;51.09;102043.69;5029157;28;64996;-77
2022/07/16 07:56:33;;;;;;;;;3.00;3.00;;;;;23.52;50.95;102037.22;5033249;28;54007;-77
2022/07/16 07:58:59;;;;;;;;;5.00;3.33;;;;;23.58;50.59;102036.19;5034765;28;47631;-79
2022/07/16 08:01:24;;;;;;;;;6.00;5.00;;;;;23.64;50.15;102036.97;5034182;28;67769;-80
2022/07/16 08:03:50;;;;;;;;;4.00;4.00;;;;;23.74;50.48;102040.31;5033789;28;45478;-77
2022/07/16 08:06:15;;;;;;;;;3.00;3.00;;;;;23.78;49.96;102044.72;5035703;28;45435;-81
2022/07/16 08:08:40;;;;;;;;;5.33;4.00;;;;;23.87;50.01;102040.94;5034726;28;55779;-78
2022/07/16 08:11:06;;;;;;;;;4.67;3.00;;;;;23.92;49.84;102037.19;5034360;28;67643;-80
2022/07/16 08:13:31;;;;;;;;;4.33;4.00;;;;;23.98;49.48;102047.81;5034254;28;55643;-76
2022/07/16 08:15:56;;;;;;;;;5.00;4.00;;;;;24.07;49.14;102041.28;5032242;28;45690;-78
2022/07/16 08:18:22;;;;;;;;;5.33;3.00;;;;;24.12;48.41;102043.88;5031335;28;64938;-78
2022/07/16 08:20:47;;;;;;;;;4.00;4.00;;;;;24.15;48.54;102043.81;5034520;28;63365;-77
2022/07/16 08:23:12;;;;;;;;;3.00;3.00;;;;;24.21;48.27;102043.63;5034397;28;58249;-77
2022/07/16 08:25:47;;;;;;;;;4.00;4.00;;;;;24.24;48.16;102049.84;5034536;28;45540;-78
2022/07/16 08:28:14;;;;;;;;;4.00;4.00;;;;;24.30;48.24;102046.09;5035420;28;46433;-78
2022/07/16 08:30:40;;;;;;;;;4.00;4.00;;;;;24.34;47.12;102041.47;5036325;28;45529;-81
2022/07/16 08:33:06;;;;;;;;;4.67;4.00;;;;;24.36;47.67;102040.56;5018401;28;45547;-77
2022/07/16 08:35:31;;;;;;;;;5.33;3.33;;;;;24.38;47.51;102033.28;5035984;28;45546;-81
2022/07/16 08:37:56;;;;;;;;;6.00;4.00;;;;;24.42;47.76;102035.00;5035315;28;67076;-76
2022/07/16 08:40:23;;;;;;;;;6.67;6.00;;;;;24.48;47.01;102032.13;5035609;28;66162;-81
2022/07/16 08:42:49;;;;;;;;;7.33;7.00;;;;;24.50;47.07;102035.69;5036112;28;45409;-77
2022/07/16 08:45:17;;;;;;;;;8.33;6.67;;;;;24.52;47.08;102036.50;5036001;28;45380;-80
2022/07/16 08:47:42;;;;;;;;;7.00;5.67;;;;;24.56;46.79;102035.50;5036254;28;47414;-78
2022/07/16 08:50:10;;;;;;;;;4.00;4.00;;;;;24.65;47.12;102036.16;5018442;28;46534;-80
2022/07/16 08:52:44;;;;;;;;;5.67;4.33;;;;;24.70;46.48;102047.72;5035114;28;45285;-77
2022/07/16 08:55:10;;;;;;;;;7.00;6.00;;;;;24.75;46.64;102041.25;5018336;28;45207;-80
2022/07/16 08:57:38;;;;;;;;;12.67;8.67;;;;;24.82;46.58;102042.88;5035180;28;46634;-78
2022/07/16 09:00:07;;;;;;;;;4.33;2.00;;;;;24.88;46.13;102046.31;5035956;28;45443;-77
2022/07/16 09:02:33;;;;;;;;;6.00;5.00;;;;;24.90;46.48;102045.31;5035756;28;45583;-76
2022/07/16 09:04:59;;;;;;;;;4.00;4.00;;;;;24.93;46.01;102045.25;5035746;28;45582;-77
2022/07/16 09:07:25;;;;;;;;;14.67;10.00;;;;;24.98;46.11;102053.19;5035866;28;47309;-78
2022/07/16 09:09:50;;;;;;;;;4.00;4.00;;;;;25.01;45.89;102051.28;5033420;28;64446;-77
2022/07/16 09:12:40;;;;;;;;;5.33;4.00;;;;;25.05;45.34;102052.97;5161094;22;46112;-79
2022/07/16 09:15:25;;;;;;;;;10.00;5.33;;;;;25.07;45.51;102045.72;5052582;28;45402;-76
2022/07/16 09:18:09;;;;;;;;;8.67;6.33;;;;;25.10;45.57;102039.38;5049538;28;46525;-80
2022/07/16 09:20:35;;;;;;;;;4.00;4.00;;;;;25.12;44.54;102047.41;5055628;28;45420;-78
2022/07/16 09:23:02;;;;;;;;;3.00;3.00;;;;;25.14;44.99;102045.53;5055216;28;45500;-77
2022/07/16 09:25:27;;;;;;;;;5.67;4.00;;;;;25.18;45.19;102044.53;5055964;28;45273;-77
2022/07/16 09:28:00;;;;;;;;;4.00;3.00;;;;;25.22;44.99;102046.22;5054741;28;47306;-79
2022/07/16 09:30:27;;;;;;;;;7.33;6.00;;;;;25.24;44.80;102056.03;5056036;28;45623;-80
2022/07/16 09:32:53;;;;;;;;;6.00;4.33;;;;;25.31;44.46;102052.22;5055399;28;45578;-77
2022/07/16 09:35:18;;;;;;;;;6.00;5.67;;;;;25.38;43.87;102050.22;5056001;28;45249;-77
2022/07/16 09:37:49;;;;;;;;;8.00;5.00;;;;;25.43;44.38;102056.34;5056871;28;46425;-77
2022/07/16 09:40:15;;;;;;;;;6.00;6.00;;;;;25.50;43.21;102049.81;5059601;28;45388;-80
2022/07/16 09:42:41;;;;;;;;;5.00;5.00;;;;;25.52;42.96;102045.25;5041143;28;45409;-80
2022/07/16 09:45:08;;;;;;;;;14.67;9.00;;;;;25.58;43.60;102041.47;5058736;28;45543;-77
2022/07/16 09:47:33;;;;;;;;;5.67;5.33;;;;;25.64;43.28;102041.25;5059277;28;46876;-79
2022/07/16 09:49:59;;;;;;;;;5.00;5.00;;;;;25.68;43.04;102040.25;5058394;28;52495;-81
2022/07/16 09:52:29;;;;;;;;;7.33;5.00;;;;;25.72;43.16;102046.41;5059563;28;45293;-76
2022/07/16 09:54:56;;;;;;;;;23.33;20.33;;;;;25.76;42.86;102045.41;5058982;28;45492;-78
2022/07/16 09:57:25;;;;;;;;;8.67;8.00;;;;;25.82;42.78;102047.91;5054223;28;46967;-77
2022/07/16 09:59:50;;;;;;;;;5.00;5.00;;;;;25.88;42.41;102041.41;5055123;28;45872;-78
2022/07/16 10:02:16;;;;;;;;;8.67;8.67;;;;;25.93;42.49;102051.13;5058049;28;58818;-81
2022/07/16 10:04:41;;;;;;;;;10.00;7.00;;;;;25.96;42.09;102053.75;5058519;28;58236;-79
2022/07/16 10:07:07;;;;;;;;;4.67;4.00;;;;;26.03;42.76;102060.72;5057944;28;59023;-76
2022/07/16 10:09:33;;;;;;;;;4.00;3.00;;;;;26.08;41.81;102050.63;5058688;28;45300;-78
2022/07/16 10:12:05;;;;;;;;;5.33;5.33;;;;;26.10;41.68;102048.78;5058018;28;45549;-78
2022/07/16 10:14:33;;;;;;;;;5.00;5.00;;;;;26.13;41.65;102051.34;5038675;28;45621;-81
2022/07/16 10:17:00;;;;;;;;;4.33;4.33;;;;;26.14;41.51;102046.81;5055181;28;47795;-77
2022/07/16 10:19:34;;;;;;;;;4.00;4.00;;;;;26.16;40.73;102042.25;5056987;28;45275;-80
2022/07/16 10:22:29;;;;;;;;;6.00;4.00;;;;;26.19;40.89;102047.53;5058590;28;45431;-77
2022/07/16 10:24:56;;;;;;;;;2.33;2.33;;;;;26.25;40.24;102057.28;5054443;28;45325;-77
2022/07/16 10:27:34;;;;;;;;;4.00;4.00;;;;;26.30;40.07;102060.72;5050133;28;47439;-80
2022/07/16 10:30:13;;;;;;;;;5.33;4.33;;;;;26.34;40.13;102054.25;5029021;28;45524;-78
2022/07/16 10:33:05;;;;;;;;;4.00;2.67;;;;;26.36;39.81;102055.94;5057222;28;45201;-76
2022/07/16 10:35:39;;;;;;;;;4.00;4.00;;;;;26.38;39.12;102050.50;5058498;28;45249;-81
2022/07/16 10:38:12;;;;;;;;;4.33;4.33;;;;;26.36;38.90;102047.81;5038900;28;47309;-78
2022/07/16 10:40:39;;;;;;;;;8.00;4.33;;;;;26.37;38.77;102046.91;5058079;28;45396;-77
2022/07/16 10:43:18;;;;;;;;;3.33;3.33;;;;;26.41;39.29;102044.97;5058627;28;45464;-78
2022/07/16 10:45:57;;;;;;;;;3.33;3.33;;;;;26.47;38.36;102047.47;5057955;28;45482;-78
2022/07/16 10:48:24;;;;;;;;;7.33;3.33;;;;;26.50;38.97;102047.38;5057842;28;47859;-80
2022/07/16 10:51:23;;;;;;;;;3.00;3.00;;;;;26.57;38.85;102046.22;5057420;28;45249;-78
2022/07/16 10:53:57;;;;;;;;;4.67;3.33;;;;;26.68;38.81;102036.81;5013331;28;45535;-80
2022/07/16 10:56:45;;;;;;;;;5.67;4.00;;;;;26.72;38.57;102035.75;5058204;28;45332;-83
2022/07/16 10:59:13;;;;;;;;;3.67;3.67;;;;;26.76;38.02;102035.59;5057690;28;46411;-78
2022/07/16 11:01:40;;;;;;;;;5.00;5.00;;;;;26.80;38.80;102030.94;5057987;28;45269;-79
2022/07/16 11:04:06;;;;;;;;;14.67;13.00;;;;;26.87;38.29;102038.78;5057798;28;45641;-77
2022/07/16 11:06:32;;;;;;;;;7.00;7.00;;;;;26.97;38.88;102035.72;5058274;28;45477;-78
2022/07/16 11:09:00;;;;;;;;;5.33;4.00;;;;;27.07;37.93;102043.47;5057619;28;46602;-79
2022/07/16 11:11:41;;;;;;;;;4.67;4.00;;;;;27.15;38.50;102035.03;5049199;28;45460;-79
2022/07/16 11:14:08;;;;;;;;;5.67;4.67;;;;;27.21;37.94;102031.19;5055384;28;45469;-81
2022/07/16 11:16:35;;;;;;;;;5.00;5.00;;;;;27.28;37.72;102035.44;5057356;28;45441;-78
2022/07/16 11:19:04;;;;;;;;;5.00;4.00;;;;;27.35;37.98;102031.53;5057302;28;47544;-78
2022/07/16 11:21:31;;;;;;;;;6.00;5.00;;;;;27.38;37.87;102032.31;5057698;28;45767;-77
2022/07/16 11:23:59;;;;;;;;;5.67;4.67;;;;;27.42;37.33;102020.34;5057252;28;45589;-78